sensor_id;sensor_type;location;lat;lon;timestamp;temperature;humidity
9849;DHT22;4963;51.444;6.528;2022-09-03T00:02:05;19.90;69.50
9849;DHT22;4963;51.444;6.528;2022-09-03T00:04:40;19.80;69.70
9849;DHT22;4963;51.444;6.528;2022-09-03T00:07:16;19.90;69.70
9849;DHT22;4963;51.444;6.528;2022-09-03T00:09:48;19.80;69.70
9849;DHT22;4963;51.444;6.528;2022-09-03T00:12:20;19.80;69.80
9849;DHT22;4963;51.444;6.528;2022-09-03T00:14:52;19.80;70.00
9849;DHT22;4963;51.444;6.528;2022-09-03T00:17:24;19.80;70.00
9849;DHT22;4963;51.444;6.528;2022-09-03T00:19:56;19.80;70.70
9849;DHT22;4963;51.444;6.528;2022-09-03T00:22:27;19.70;70.10
9849;DHT22;4963;51.444;6.528;2022-09-03T00:24:56;19.80;70.40
9849;DHT22;4963;51.444;6.528;2022-09-03T00:27:26;19.70;70.50
9849;DHT22;4963;51.444;6.528;2022-09-03T00:29:57;19.70;70.40
9849;DHT22;4963;51.444;6.528;2022-09-03T00:32:39;19.70;70.70
9849;DHT22;4963;51.444;6.528;2022-09-03T00:35:14;19.70;70.70
9849;DHT22;4963;51.444;6.528;2022-09-03T00:37:42;19.60;71.00
9849;DHT22;4963;51.444;6.528;2022-09-03T00:40:16;19.50;71.10
9849;DHT22;4963;51.444;6.528;2022-09-03T00:42:51;19.50;71.20
9849;DHT22;4963;51.444;6.528;2022-09-03T00:45:28;19.50;71.30
9849;DHT22;4963;51.444;6.528;2022-09-03T00:48:06;19.40;71.60
9849;DHT22;4963;51.444;6.528;2022-09-03T00:50:45;19.40;72.00
9849;DHT22;4963;51.444;6.528;2022-09-03T00:53:21;19.40;72.20
9849;DHT22;4963;51.444;6.528;2022-09-03T00:55:55;19.30;72.60
9849;DHT22;4963;51.444;6.528;2022-09-03T01:01:20;19.30;72.80
9849;DHT22;4963;51.444;6.528;2022-09-03T01:03:55;19.30;72.80
9849;DHT22;4963;51.444;6.528;2022-09-03T01:06:34;19.30;72.70
9849;DHT22;4963;51.444;6.528;2022-09-03T01:09:16;19.40;73.00
9849;DHT22;4963;51.444;6.528;2022-09-03T01:11:56;19.30;72.80
9849;DHT22;4963;51.444;6.528;2022-09-03T01:14:33;19.30;73.00
9849;DHT22;4963;51.444;6.528;2022-09-03T01:17:10;19.30;73.50
9849;DHT22;4963;51.444;6.528;2022-09-03T01:20:07;19.20;73.80
9849;DHT22;4963;51.444;6.528;2022-09-03T01:23:10;19.10;74.00
9849;DHT22;4963;51.444;6.528;2022-09-03T01:25:50;19.10;74.00
9849;DHT22;4963;51.444;6.528;2022-09-03T01:28:28;19.10;74.10
9849;DHT22;4963;51.444;6.528;2022-09-03T01:31:11;19.00;74.50
9849;DHT22;4963;51.444;6.528;2022-09-03T01:33:43;19.00;74.70
9849;DHT22;4963;51.444;6.528;2022-09-03T01:36:19;19.00;74.70
9849;DHT22;4963;51.444;6.528;2022-09-03T01:38:52;19.10;74.80
9849;DHT22;4963;51.444;6.528;2022-09-03T01:41:28;19.10;75.30
9849;DHT22;4963;51.444;6.528;2022-09-03T01:44:25;19.00;76.00
9849;DHT22;4963;51.444;6.528;2022-09-03T01:47:04;18.90;76.20
9849;DHT22;4963;51.444;6.528;2022-09-03T01:49:39;18.90;76.40
9849;DHT22;4963;51.444;6.528;2022-09-03T01:52:11;18.80;76.50
9849;DHT22;4963;51.444;6.528;2022-09-03T01:54:50;18.80;76.70
9849;DHT22;4963;51.444;6.528;2022-09-03T01:57:38;18.80;77.00
9849;DHT22;4963;51.444;6.528;2022-09-03T02:00:09;18.60;77.20
9849;DHT22;4963;51.444;6.528;2022-09-03T02:02:38;18.60;77.50
9849;DHT22;4963;51.444;6.528;2022-09-03T02:05:09;18.60;77.90
9849;DHT22;4963;51.444;6.528;2022-09-03T02:07:39;18.60;78.30
9849;DHT22;4963;51.444;6.528;2022-09-03T02:10:08;18.60;78.40
9849;DHT22;4963;51.444;6.528;2022-09-03T02:12:37;18.60;78.70
9849;DHT22;4963;51.444;6.528;2022-09-03T02:15:11;18.50;78.80
9849;DHT22;4963;51.444;6.528;2022-09-03T02:17:40;18.60;78.90
9849;DHT22;4963;51.444;6.528;2022-09-03T02:20:11;18.60;79.20
9849;DHT22;4963;51.444;6.528;2022-09-03T02:22:45;18.60;79.20
9849;DHT22;4963;51.444;6.528;2022-09-03T02:25:14;18.60;79.40
9849;DHT22;4963;51.444;6.528;2022-09-03T02:27:41;18.50;79.80
9849;DHT22;4963;51.444;6.528;2022-09-03T02:30:11;18.50;80.00
9849;DHT22;4963;51.444;6.528;2022-09-03T02:32:37;18.50;80.20
9849;DHT22;4963;51.444;6.528;2022-09-03T02:35:05;18.50;80.30
9849;DHT22;4963;51.444;6.528;2022-09-03T02:37:32;18.50;80.30
9849;DHT22;4963;51.444;6.528;2022-09-03T02:39:59;18.50;80.50
9849;DHT22;4963;51.444;6.528;2022-09-03T02:42:26;18.50;81.30
9849;DHT22;4963;51.444;6.528;2022-09-03T02:44:58;18.40;81.00
9849;DHT22;4963;51.444;6.528;2022-09-03T02:47:30;18.30;81.30
9849;DHT22;4963;51.444;6.528;2022-09-03T02:49:58;18.20;81.70
9849;DHT22;4963;51.444;6.528;2022-09-03T02:52:25;18.10;82.10
9849;DHT22;4963;51.444;6.528;2022-09-03T02:54:52;18.10;82.50
9849;DHT22;4963;51.444;6.528;2022-09-03T02:57:19;18.00;83.00
9849;DHT22;4963;51.444;6.528;2022-09-03T02:59:46;17.90;83.40
9849;DHT22;4963;51.444;6.528;2022-09-03T03:02:13;17.90;83.70
9849;DHT22;4963;51.444;6.528;2022-09-03T03:04:41;17.90;84.30
9849;DHT22;4963;51.444;6.528;2022-09-03T03:07:08;17.90;84.50
9849;DHT22;4963;51.444;6.528;2022-09-03T03:09:35;17.90;85.00
9849;DHT22;4963;51.444;6.528;2022-09-03T03:12:02;17.80;85.50
9849;DHT22;4963;51.444;6.528;2022-09-03T03:14:29;17.80;85.80
9849;DHT22;4963;51.444;6.528;2022-09-03T03:16:56;17.80;86.00
9849;DHT22;4963;51.444;6.528;2022-09-03T03:19:23;17.80;86.20
9849;DHT22;4963;51.444;6.528;2022-09-03T03:21:51;17.80;86.60
9849;DHT22;4963;51.444;6.528;2022-09-03T03:24:18;17.80;87.00
9849;DHT22;4963;51.444;6.528;2022-09-03T03:26:45;17.70;87.00
9849;DHT22;4963;51.444;6.528;2022-09-03T03:29:15;17.80;87.10
9849;DHT22;4963;51.444;6.528;2022-09-03T03:31:43;17.90;87.20
9849;DHT22;4963;51.444;6.528;2022-09-03T03:34:10;17.80;87.30
9849;DHT22;4963;51.444;6.528;2022-09-03T03:36:37;17.80;87.80
9849;DHT22;4963;51.444;6.528;2022-09-03T03:39:05;17.70;88.20
9849;DHT22;4963;51.444;6.528;2022-09-03T03:41:33;17.70;88.50
9849;DHT22;4963;51.444;6.528;2022-09-03T03:44:02;17.60;88.70
9849;DHT22;4963;51.444;6.528;2022-09-03T03:46:31;17.60;89.10
9849;DHT22;4963;51.444;6.528;2022-09-03T03:48:58;17.60;89.50
9849;DHT22;4963;51.444;6.528;2022-09-03T03:51:26;17.50;89.50
9849;DHT22;4963;51.444;6.528;2022-09-03T03:53:54;17.50;89.90
9849;DHT22;4963;51.444;6.528;2022-09-03T03:56:23;17.50;90.00
9849;DHT22;4963;51.444;6.528;2022-09-03T03:58:51;17.50;90.30
9849;DHT22;4963;51.444;6.528;2022-09-03T04:01:20;17.50;90.00
9849;DHT22;4963;51.444;6.528;2022-09-03T04:03:47;17.60;90.00
9849;DHT22;4963;51.444;6.528;2022-09-03T04:06:17;17.60;90.10
9849;DHT22;4963;51.444;6.528;2022-09-03T04:08:45;17.60;90.10
9849;DHT22;4963;51.444;6.528;2022-09-03T04:11:14;17.60;90.20
9849;DHT22;4963;51.444;6.528;2022-09-03T04:13:43;17.60;90.30
9849;DHT22;4963;51.444;6.528;2022-09-03T04:16:12;17.60;90.30
9849;DHT22;4963;51.444;6.528;2022-09-03T04:18:40;17.50;90.40
9849;DHT22;4963;51.444;6.528;2022-09-03T04:21:09;17.40;90.70
9849;DHT22;4963;51.444;6.528;2022-09-03T04:23:37;17.40;90.90
9849;DHT22;4963;51.444;6.528;2022-09-03T04:26:05;17.40;90.90
9849;DHT22;4963;51.444;6.528;2022-09-03T04:28:32;17.40;90.90
9849;DHT22;4963;51.444;6.528;2022-09-03T04:31:05;17.40;91.20
9849;DHT22;4963;51.444;6.528;2022-09-03T04:33:33;17.40;91.10
9849;DHT22;4963;51.444;6.528;2022-09-03T04:36:03;17.40;91.10
9849;DHT22;4963;51.444;6.528;2022-09-03T04:38:31;17.40;91.10
9849;DHT22;4963;51.444;6.528;2022-09-03T04:40:58;17.40;91.20
9849;DHT22;4963;51.444;6.528;2022-09-03T04:43:25;17.40;91.40
9849;DHT22;4963;51.444;6.528;2022-09-03T04:45:55;17.40;91.40
9849;DHT22;4963;51.444;6.528;2022-09-03T04:48:24;17.40;91.30
9849;DHT22;4963;51.444;6.528;2022-09-03T04:50:51;17.40;91.30
9849;DHT22;4963;51.444;6.528;2022-09-03T04:53:19;17.40;91.30
9849;DHT22;4963;51.444;6.528;2022-09-03T04:55:47;17.40;91.50
9849;DHT22;4963;51.444;6.528;2022-09-03T04:58:14;17.30;91.40
9849;DHT22;4963;51.444;6.528;2022-09-03T05:00:40;17.40;91.40
9849;DHT22;4963;51.444;6.528;2022-09-03T05:03:07;17.40;91.40
9849;DHT22;4963;51.444;6.528;2022-09-03T05:05:36;17.40;91.40
9849;DHT22;4963;51.444;6.528;2022-09-03T05:08:03;17.40;91.50
9849;DHT22;4963;51.444;6.528;2022-09-03T05:10:30;17.40;91.60
9849;DHT22;4963;51.444;6.528;2022-09-03T05:12:58;17.30;91.80
9849;DHT22;4963;51.444;6.528;2022-09-03T05:15:25;17.30;92.00
9849;DHT22;4963;51.444;6.528;2022-09-03T05:17:55;17.20;92.30
9849;DHT22;4963;51.444;6.528;2022-09-03T05:20:23;17.40;91.90
9849;DHT22;4963;51.444;6.528;2022-09-03T05:22:51;17.80;91.20
9849;DHT22;4963;51.444;6.528;2022-09-03T05:25:18;18.10;90.80
9849;DHT22;4963;51.444;6.528;2022-09-03T05:27:45;18.40;90.20
9849;DHT22;4963;51.444;6.528;2022-09-03T05:30:12;18.60;89.50
9849;DHT22;4963;51.444;6.528;2022-09-03T05:32:39;18.50;89.40
9849;DHT22;4963;51.444;6.528;2022-09-03T05:35:08;18.40;89.80
9849;DHT22;4963;51.444;6.528;2022-09-03T05:37:35;18.20;90.10
9849;DHT22;4963;51.444;6.528;2022-09-03T05:40:04;18.10;90.50
9849;DHT22;4963;51.444;6.528;2022-09-03T05:42:31;17.90;90.70
9849;DHT22;4963;51.444;6.528;2022-09-03T05:45:05;17.90;90.80
9849;DHT22;4963;51.444;6.528;2022-09-03T05:47:34;17.80;91.10
9849;DHT22;4963;51.444;6.528;2022-09-03T05:50:01;17.80;91.10
9849;DHT22;4963;51.444;6.528;2022-09-03T05:52:28;17.80;91.20
9849;DHT22;4963;51.444;6.528;2022-09-03T05:54:56;17.70;91.40
9849;DHT22;4963;51.444;6.528;2022-09-03T05:57:24;17.70;91.60
9849;DHT22;4963;51.444;6.528;2022-09-03T05:59:51;17.70;91.70
9849;DHT22;4963;51.444;6.528;2022-09-03T06:02:18;17.70;91.80
9849;DHT22;4963;51.444;6.528;2022-09-03T06:04:46;17.70;92.00
9849;DHT22;4963;51.444;6.528;2022-09-03T06:07:13;17.70;91.90
9849;DHT22;4963;51.444;6.528;2022-09-03T06:09:39;17.70;91.80
9849;DHT22;4963;51.444;6.528;2022-09-03T06:12:06;17.70;92.20
9849;DHT22;4963;51.444;6.528;2022-09-03T06:14:35;17.80;92.20
9849;DHT22;4963;51.444;6.528;2022-09-03T06:17:01;17.80;92.00
9849;DHT22;4963;51.444;6.528;2022-09-03T06:19:28;17.80;92.20
9849;DHT22;4963;51.444;6.528;2022-09-03T06:21:55;17.80;92.30
9849;DHT22;4963;51.444;6.528;2022-09-03T06:24:22;17.80;92.40
9849;DHT22;4963;51.444;6.528;2022-09-03T06:26:49;17.80;92.10
9849;DHT22;4963;51.444;6.528;2022-09-03T06:29:16;17.90;92.40
9849;DHT22;4963;51.444;6.528;2022-09-03T06:31:45;18.00;92.40
9849;DHT22;4963;51.444;6.528;2022-09-03T06:34:13;18.00;92.00
9849;DHT22;4963;51.444;6.528;2022-09-03T06:36:40;18.10;91.60
9849;DHT22;4963;51.444;6.528;2022-09-03T06:39:07;18.10;91.50
9849;DHT22;4963;51.444;6.528;2022-09-03T06:41:34;18.20;91.30
9849;DHT22;4963;51.444;6.528;2022-09-03T06:44:02;18.30;91.20
9849;DHT22;4963;51.444;6.528;2022-09-03T06:46:31;18.40;91.10
9849;DHT22;4963;51.444;6.528;2022-09-03T06:49:01;18.50;90.90
9849;DHT22;4963;51.444;6.528;2022-09-03T06:51:29;18.60;90.70
9849;DHT22;4963;51.444;6.528;2022-09-03T06:53:59;18.70;90.50
9849;DHT22;4963;51.444;6.528;2022-09-03T06:56:27;18.80;90.50
9849;DHT22;4963;51.444;6.528;2022-09-03T06:58:55;18.90;90.30
9849;DHT22;4963;51.444;6.528;2022-09-03T07:01:24;19.00;90.20
9849;DHT22;4963;51.444;6.528;2022-09-03T07:03:52;19.00;90.00
9849;DHT22;4963;51.444;6.528;2022-09-03T07:06:24;19.10;89.90
9849;DHT22;4963;51.444;6.528;2022-09-03T07:08:52;19.30;89.20
9849;DHT22;4963;51.444;6.528;2022-09-03T07:11:20;19.30;89.50
9849;DHT22;4963;51.444;6.528;2022-09-03T07:13:52;19.40;89.00
9849;DHT22;4963;51.444;6.528;2022-09-03T07:16:21;19.50;89.00
9849;DHT22;4963;51.444;6.528;2022-09-03T07:18:49;19.60;89.10
9849;DHT22;4963;51.444;6.528;2022-09-03T07:21:17;19.70;88.60
9849;DHT22;4963;51.444;6.528;2022-09-03T07:23:47;19.80;88.50
9849;DHT22;4963;51.444;6.528;2022-09-03T07:26:16;19.90;87.80
9849;DHT22;4963;51.444;6.528;2022-09-03T07:28:44;19.90;88.10
9849;DHT22;4963;51.444;6.528;2022-09-03T07:31:13;20.00;87.60
9849;DHT22;4963;51.444;6.528;2022-09-03T07:33:41;20.00;87.30
9849;DHT22;4963;51.444;6.528;2022-09-03T07:36:09;20.10;87.50
9849;DHT22;4963;51.444;6.528;2022-09-03T07:38:37;20.10;88.10
9849;DHT22;4963;51.444;6.528;2022-09-03T07:41:07;20.20;87.90
9849;DHT22;4963;51.444;6.528;2022-09-03T07:43:35;20.30;86.40
9849;DHT22;4963;51.444;6.528;2022-09-03T07:46:04;20.50;85.90
9849;DHT22;4963;51.444;6.528;2022-09-03T07:48:32;20.60;85.50
9849;DHT22;4963;51.444;6.528;2022-09-03T07:50:59;20.80;84.80
9849;DHT22;4963;51.444;6.528;2022-09-03T07:53:27;20.90;83.90
9849;DHT22;4963;51.444;6.528;2022-09-03T07:56:00;20.90;83.80
9849;DHT22;4963;51.444;6.528;2022-09-03T07:58:29;21.00;84.10
9849;DHT22;4963;51.444;6.528;2022-09-03T08:00:56;21.00;83.90
9849;DHT22;4963;51.444;6.528;2022-09-03T08:03:23;21.10;83.60
9849;DHT22;4963;51.444;6.528;2022-09-03T08:05:50;21.10;83.00
9849;DHT22;4963;51.444;6.528;2022-09-03T08:08:17;21.20;82.90
9849;DHT22;4963;51.444;6.528;2022-09-03T08:10:44;21.20;83.30
9849;DHT22;4963;51.444;6.528;2022-09-03T08:13:11;21.20;82.90
9849;DHT22;4963;51.444;6.528;2022-09-03T08:15:39;21.20;82.50
9849;DHT22;4963;51.444;6.528;2022-09-03T08:18:07;21.40;82.40
9849;DHT22;4963;51.444;6.528;2022-09-03T08:20:36;21.50;82.30
9849;DHT22;4963;51.444;6.528;2022-09-03T08:23:04;21.70;82.00
9849;DHT22;4963;51.444;6.528;2022-09-03T08:25:31;22.00;82.00
9849;DHT22;4963;51.444;6.528;2022-09-03T08:27:58;22.30;81.30
9849;DHT22;4963;51.444;6.528;2022-09-03T08:30:26;22.60;80.90
9849;DHT22;4963;51.444;6.528;2022-09-03T08:32:54;22.90;80.20
9849;DHT22;4963;51.444;6.528;2022-09-03T08:35:22;23.20;79.10
9849;DHT22;4963;51.444;6.528;2022-09-03T08:37:49;23.30;78.00
9849;DHT22;4963;51.444;6.528;2022-09-03T08:40:19;23.20;77.80
9849;DHT22;4963;51.444;6.528;2022-09-03T08:42:56;23.10;78.20
9849;DHT22;4963;51.444;6.528;2022-09-03T08:45:25;23.20;78.70
9849;DHT22;4963;51.444;6.528;2022-09-03T08:48:02;23.40;77.60
9849;DHT22;4963;51.444;6.528;2022-09-03T08:50:36;23.80;77.70
9849;DHT22;4963;51.444;6.528;2022-09-03T08:53:08;24.10;76.00
9849;DHT22;4963;51.444;6.528;2022-09-03T08:55:40;24.30;75.90
9849;DHT22;4963;51.444;6.528;2022-09-03T08:58:11;24.50;75.90
9849;DHT22;4963;51.444;6.528;2022-09-03T09:00:45;24.70;74.70
9849;DHT22;4963;51.444;6.528;2022-09-03T09:03:42;24.80;74.40
9849;DHT22;4963;51.444;6.528;2022-09-03T09:06:18;24.80;74.00
9849;DHT22;4963;51.444;6.528;2022-09-03T09:09:08;24.80;74.40
9849;DHT22;4963;51.444;6.528;2022-09-03T09:11:49;24.90;73.90
9849;DHT22;4963;51.444;6.528;2022-09-03T09:14:28;25.00;74.30
9849;DHT22;4963;51.444;6.528;2022-09-03T09:17:01;25.00;73.60
9849;DHT22;4963;51.444;6.528;2022-09-03T09:19:40;25.10;73.40
9849;DHT22;4963;51.444;6.528;2022-09-03T09:22:15;25.10;73.40
9849;DHT22;4963;51.444;6.528;2022-09-03T09:24:45;25.10;73.00
9849;DHT22;4963;51.444;6.528;2022-09-03T09:27:15;25.20;73.30
9849;DHT22;4963;51.444;6.528;2022-09-03T09:29:47;25.20;73.00
9849;DHT22;4963;51.444;6.528;2022-09-03T09:32:15;25.20;73.30
9849;DHT22;4963;51.444;6.528;2022-09-03T09:34:45;25.20;73.20
9849;DHT22;4963;51.444;6.528;2022-09-03T09:37:15;25.20;73.60
9849;DHT22;4963;51.444;6.528;2022-09-03T09:39:54;25.10;73.10
9849;DHT22;4963;51.444;6.528;2022-09-03T09:42:22;25.10;73.70
9849;DHT22;4963;51.444;6.528;2022-09-03T09:44:49;25.10;72.90
9849;DHT22;4963;51.444;6.528;2022-09-03T09:47:22;25.10;73.00
9849;DHT22;4963;51.444;6.528;2022-09-03T09:49:54;25.10;73.60
9849;DHT22;4963;51.444;6.528;2022-09-03T09:52:22;25.20;73.70
9849;DHT22;4963;51.444;6.528;2022-09-03T09:54:51;25.30;72.80
9849;DHT22;4963;51.444;6.528;2022-09-03T09:57:21;25.40;73.70
9849;DHT22;4963;51.444;6.528;2022-09-03T09:59:48;25.30;73.30
9849;DHT22;4963;51.444;6.528;2022-09-03T10:02:22;25.30;73.30
9849;DHT22;4963;51.444;6.528;2022-09-03T10:05:00;25.40;73.20
9849;DHT22;4963;51.444;6.528;2022-09-03T10:07:37;25.40;73.60
9849;DHT22;4963;51.444;6.528;2022-09-03T10:10:06;25.40;72.60
9849;DHT22;4963;51.444;6.528;2022-09-03T10:12:41;25.40;73.00
9849;DHT22;4963;51.444;6.528;2022-09-03T10:15:21;25.50;73.70
9849;DHT22;4963;51.444;6.528;2022-09-03T10:18:01;25.60;73.50
9849;DHT22;4963;51.444;6.528;2022-09-03T10:20:35;25.60;73.60
9849;DHT22;4963;51.444;6.528;2022-09-03T10:23:10;25.60;73.60
9849;DHT22;4963;51.444;6.528;2022-09-03T10:25:45;25.60;73.40
9849;DHT22;4963;51.444;6.528;2022-09-03T10:28:17;25.60;73.80
9849;DHT22;4963;51.444;6.528;2022-09-03T10:31:00;25.70;73.80
9849;DHT22;4963;51.444;6.528;2022-09-03T10:33:32;25.70;73.80
9849;DHT22;4963;51.444;6.528;2022-09-03T10:36:10;25.60;74.70
9849;DHT22;4963;51.444;6.528;2022-09-03T10:38:41;25.40;74.50
9849;DHT22;4963;51.444;6.528;2022-09-03T10:41:19;25.40;75.20
9849;DHT22;4963;51.444;6.528;2022-09-03T10:44:21;25.40;75.20
9849;DHT22;4963;51.444;6.528;2022-09-03T10:46:57;25.40;75.70
9849;DHT22;4963;51.444;6.528;2022-09-03T10:49:40;25.40;75.20
9849;DHT22;4963;51.444;6.528;2022-09-03T10:52:20;25.30;75.40
9849;DHT22;4963;51.444;6.528;2022-09-03T10:55:01;25.20;75.60
9849;DHT22;4963;51.444;6.528;2022-09-03T10:57:43;25.10;75.40
9849;DHT22;4963;51.444;6.528;2022-09-03T11:00:13;25.30;75.40
9849;DHT22;4963;51.444;6.528;2022-09-03T11:03:07;25.40;75.50
9849;DHT22;4963;51.444;6.528;2022-09-03T11:05:38;25.50;74.80
9849;DHT22;4963;51.444;6.528;2022-09-03T11:08:13;25.50;75.00
9849;DHT22;4963;51.444;6.528;2022-09-03T11:10:43;25.60;75.30
9849;DHT22;4963;51.444;6.528;2022-09-03T11:13:19;25.50;75.50
9849;DHT22;4963;51.444;6.528;2022-09-03T11:15:50;25.60;76.10
9849;DHT22;4963;51.444;6.528;2022-09-03T11:18:21;25.80;76.00
9849;DHT22;4963;51.444;6.528;2022-09-03T11:20:52;25.90;76.00
9849;DHT22;4963;51.444;6.528;2022-09-03T11:23:23;25.90;76.00
9849;DHT22;4963;51.444;6.528;2022-09-03T11:25:55;25.90;76.40
9849;DHT22;4963;51.444;6.528;2022-09-03T11:28:30;25.90;76.40
9849;DHT22;4963;51.444;6.528;2022-09-03T11:31:12;25.90;76.20
9849;DHT22;4963;51.444;6.528;2022-09-03T11:33:46;25.90;76.60
9849;DHT22;4963;51.444;6.528;2022-09-03T11:36:24;25.90;76.80
9849;DHT22;4963;51.444;6.528;2022-09-03T11:38:54;25.90;76.20
9849;DHT22;4963;51.444;6.528;2022-09-03T11:41:25;25.90;77.30
9849;DHT22;4963;51.444;6.528;2022-09-03T11:43:52;25.90;76.80
9849;DHT22;4963;51.444;6.528;2022-09-03T11:46:29;25.80;76.20
9849;DHT22;4963;51.444;6.528;2022-09-03T11:49:08;25.80;76.50
9849;DHT22;4963;51.444;6.528;2022-09-03T11:51:36;25.80;76.60
9849;DHT22;4963;51.444;6.528;2022-09-03T11:54:08;25.80;77.00
9849;DHT22;4963;51.444;6.528;2022-09-03T11:56:50;25.70;77.70
9849;DHT22;4963;51.444;6.528;2022-09-03T11:59:28;25.70;78.60
9849;DHT22;4963;51.444;6.528;2022-09-03T12:01:59;25.70;79.20
9849;DHT22;4963;51.444;6.528;2022-09-03T12:04:32;25.80;78.70
9849;DHT22;4963;51.444;6.528;2022-09-03T12:07:13;25.70;79.20
9849;DHT22;4963;51.444;6.528;2022-09-03T12:10:06;25.80;79.90
9849;DHT22;4963;51.444;6.528;2022-09-03T12:12:44;25.80;79.70
9849;DHT22;4963;51.444;6.528;2022-09-03T12:15:33;25.80;79.60
9849;DHT22;4963;51.444;6.528;2022-09-03T12:18:05;25.80;79.80
9849;DHT22;4963;51.444;6.528;2022-09-03T12:20:59;25.70;80.00
9849;DHT22;4963;51.444;6.528;2022-09-03T12:23:29;25.70;80.50
9849;DHT22;4963;51.444;6.528;2022-09-03T12:25:59;25.70;80.80
9849;DHT22;4963;51.444;6.528;2022-09-03T12:28:28;25.70;80.90
9849;DHT22;4963;51.444;6.528;2022-09-03T12:31:06;25.80;81.40
9849;DHT22;4963;51.444;6.528;2022-09-03T12:33:34;25.80;81.70
9849;DHT22;4963;51.444;6.528;2022-09-03T12:36:01;25.80;82.40
9849;DHT22;4963;51.444;6.528;2022-09-03T12:38:28;25.80;82.40
9849;DHT22;4963;51.444;6.528;2022-09-03T12:40:58;25.90;82.30
9849;DHT22;4963;51.444;6.528;2022-09-03T12:43:27;25.90;82.60
9849;DHT22;4963;51.444;6.528;2022-09-03T12:45:54;25.90;82.50
9849;DHT22;4963;51.444;6.528;2022-09-03T12:48:21;25.90;82.20
9849;DHT22;4963;51.444;6.528;2022-09-03T12:51:00;26.00;81.60
9849;DHT22;4963;51.444;6.528;2022-09-03T12:53:28;25.90;81.60
9849;DHT22;4963;51.444;6.528;2022-09-03T12:56:00;25.80;81.30
9849;DHT22;4963;51.444;6.528;2022-09-03T12:58:32;25.80;81.40
9849;DHT22;4963;51.444;6.528;2022-09-03T13:01:06;25.80;81.10
9849;DHT22;4963;51.444;6.528;2022-09-03T13:03:42;25.80;81.20
9849;DHT22;4963;51.444;6.528;2022-09-03T13:06:12;25.60;81.70
9849;DHT22;4963;51.444;6.528;2022-09-03T13:08:44;25.60;81.50
9849;DHT22;4963;51.444;6.528;2022-09-03T13:11:16;25.60;81.60
9849;DHT22;4963;51.444;6.528;2022-09-03T13:13:52;25.60;81.60
9849;DHT22;4963;51.444;6.528;2022-09-03T13:17:01;25.60;81.60
9849;DHT22;4963;51.444;6.528;2022-09-03T13:19:38;25.70;81.30
9849;DHT22;4963;51.444;6.528;2022-09-03T13:22:13;25.70;81.10
9849;DHT22;4963;51.444;6.528;2022-09-03T13:25:07;25.80;81.30
9849;DHT22;4963;51.444;6.528;2022-09-03T13:27:43;25.70;81.60
9849;DHT22;4963;51.444;6.528;2022-09-03T13:30:12;25.70;81.70
9849;DHT22;4963;51.444;6.528;2022-09-03T13:32:47;25.80;81.50
9849;DHT22;4963;51.444;6.528;2022-09-03T13:35:25;25.80;81.60
9849;DHT22;4963;51.444;6.528;2022-09-03T13:37:55;25.90;81.50
9849;DHT22;4963;51.444;6.528;2022-09-03T13:40:33;26.00;81.40
9849;DHT22;4963;51.444;6.528;2022-09-03T13:43:04;25.90;81.60
9849;DHT22;4963;51.444;6.528;2022-09-03T13:45:45;25.90;81.30
9849;DHT22;4963;51.444;6.528;2022-09-03T13:48:20;25.90;81.60
9849;DHT22;4963;51.444;6.528;2022-09-03T13:51:21;25.80;81.30
9849;DHT22;4963;51.444;6.528;2022-09-03T13:53:56;25.80;81.40
9849;DHT22;4963;51.444;6.528;2022-09-03T13:56:34;25.80;82.40
9849;DHT22;4963;51.444;6.528;2022-09-03T13:59:08;25.80;81.70
9849;DHT22;4963;51.444;6.528;2022-09-03T14:01:51;25.80;81.50
9849;DHT22;4963;51.444;6.528;2022-09-03T14:04:26;25.80;82.00
9849;DHT22;4963;51.444;6.528;2022-09-03T14:06:59;25.70;82.00
9849;DHT22;4963;51.444;6.528;2022-09-03T14:09:34;25.70;81.80
9849;DHT22;4963;51.444;6.528;2022-09-03T14:12:12;25.70;82.60
9849;DHT22;4963;51.444;6.528;2022-09-03T14:14:50;25.70;82.50
9849;DHT22;4963;51.444;6.528;2022-09-03T14:17:29;25.80;82.10
9849;DHT22;4963;51.444;6.528;2022-09-03T14:20:02;25.80;82.00
9849;DHT22;4963;51.444;6.528;2022-09-03T14:22:43;25.80;82.00
9849;DHT22;4963;51.444;6.528;2022-09-03T14:25:15;25.80;81.90
9849;DHT22;4963;51.444;6.528;2022-09-03T14:27:43;25.90;81.30
9849;DHT22;4963;51.444;6.528;2022-09-03T14:30:24;26.00;81.20
9849;DHT22;4963;51.444;6.528;2022-09-03T14:32:58;25.90;81.20
9849;DHT22;4963;51.444;6.528;2022-09-03T14:35:37;25.90;82.20
9849;DHT22;4963;51.444;6.528;2022-09-03T14:38:15;25.90;81.50
9849;DHT22;4963;51.444;6.528;2022-09-03T14:40:49;25.90;82.10
9849;DHT22;4963;51.444;6.528;2022-09-03T14:43:28;26.00;81.90
9849;DHT22;4963;51.444;6.528;2022-09-03T14:46:14;26.00;81.80
9849;DHT22;4963;51.444;6.528;2022-09-03T14:48:56;26.00;81.80
9849;DHT22;4963;51.444;6.528;2022-09-03T14:51:38;26.00;81.30
9849;DHT22;4963;51.444;6.528;2022-09-03T14:54:19;26.00;81.50
9849;DHT22;4963;51.444;6.528;2022-09-03T14:57:00;26.00;81.50
9849;DHT22;4963;51.444;6.528;2022-09-03T14:59:49;26.00;81.00
9849;DHT22;4963;51.444;6.528;2022-09-03T15:02:59;26.00;81.00
9849;DHT22;4963;51.444;6.528;2022-09-03T15:08:33;26.00;81.30
9849;DHT22;4963;51.444;6.528;2022-09-03T15:11:13;26.00;81.70
9849;DHT22;4963;51.444;6.528;2022-09-03T15:13:46;26.00;81.60
9849;DHT22;4963;51.444;6.528;2022-09-03T15:16:24;26.00;81.20
9849;DHT22;4963;51.444;6.528;2022-09-03T15:19:09;26.00;81.00
9849;DHT22;4963;51.444;6.528;2022-09-03T15:21:50;26.00;81.10
9849;DHT22;4963;51.444;6.528;2022-09-03T15:24:27;26.00;81.10
9849;DHT22;4963;51.444;6.528;2022-09-03T15:27:11;26.00;81.20
9849;DHT22;4963;51.444;6.528;2022-09-03T15:29:50;26.00;81.40
9849;DHT22;4963;51.444;6.528;2022-09-03T15:32:29;26.00;80.80
9849;DHT22;4963;51.444;6.528;2022-09-03T15:35:15;26.00;81.30
9849;DHT22;4963;51.444;6.528;2022-09-03T15:37:46;25.90;81.40
9849;DHT22;4963;51.444;6.528;2022-09-03T15:40:24;26.00;81.40
9849;DHT22;4963;51.444;6.528;2022-09-03T15:42:57;25.90;81.70
9849;DHT22;4963;51.444;6.528;2022-09-03T15:45:33;26.00;82.10
9849;DHT22;4963;51.444;6.528;2022-09-03T15:48:16;26.00;82.30
9849;DHT22;4963;51.444;6.528;2022-09-03T15:50:52;26.00;82.40
9849;DHT22;4963;51.444;6.528;2022-09-03T15:53:29;26.00;82.80
9849;DHT22;4963;51.444;6.528;2022-09-03T15:56:06;26.10;82.60
9849;DHT22;4963;51.444;6.528;2022-09-03T15:58:40;26.10;82.60
9849;DHT22;4963;51.444;6.528;2022-09-03T16:01:18;26.10;83.30
9849;DHT22;4963;51.444;6.528;2022-09-03T16:03:57;26.20;83.40
9849;DHT22;4963;51.444;6.528;2022-09-03T16:06:32;26.20;83.60
9849;DHT22;4963;51.444;6.528;2022-09-03T16:09:08;26.20;84.00
9849;DHT22;4963;51.444;6.528;2022-09-03T16:11:51;26.30;83.50
9849;DHT22;4963;51.444;6.528;2022-09-03T16:14:26;26.40;83.80
9849;DHT22;4963;51.444;6.528;2022-09-03T16:17:00;26.40;83.40
9849;DHT22;4963;51.444;6.528;2022-09-03T16:19:35;26.40;83.30
9849;DHT22;4963;51.444;6.528;2022-09-03T16:22:11;26.30;83.30
9849;DHT22;4963;51.444;6.528;2022-09-03T16:24:46;26.20;83.00
9849;DHT22;4963;51.444;6.528;2022-09-03T16:27:16;26.30;82.50
9849;DHT22;4963;51.444;6.528;2022-09-03T16:29:56;26.30;82.50
9849;DHT22;4963;51.444;6.528;2022-09-03T16:35:21;26.20;83.20
9849;DHT22;4963;51.444;6.528;2022-09-03T16:38:02;26.20;82.30
9849;DHT22;4963;51.444;6.528;2022-09-03T16:40:37;26.20;82.80
9849;DHT22;4963;51.444;6.528;2022-09-03T16:43:15;26.10;82.90
9849;DHT22;4963;51.444;6.528;2022-09-03T16:45:49;26.10;82.90
9849;DHT22;4963;51.444;6.528;2022-09-03T16:48:26;26.10;82.60